sensor_id;sensor_type;location;lat;lon;timestamp;temperature;humidity
83142;DHT22;75194;51.180;5.972;2024-03-22T00:00:42;11.60;77.10
83142;DHT22;75194;51.180;5.972;2024-03-22T00:03:11;11.70;77.20
83142;DHT22;75194;51.180;5.972;2024-03-22T00:05:36;11.70;77.00
83142;DHT22;75194;51.180;5.972;2024-03-22T00:08:02;11.70;77.10
83142;DHT22;75194;51.180;5.972;2024-03-22T00:10:28;11.70;77.20
83142;DHT22;75194;51.180;5.972;2024-03-22T00:12:54;11.70;77.30
83142;DHT22;75194;51.180;5.972;2024-03-22T00:15:19;11.70;77.30
83142;DHT22;75194;51.180;5.972;2024-03-22T00:17:47;11.70;77.30
83142;DHT22;75194;51.180;5.972;2024-03-22T00:20:13;11.70;77.30
83142;DHT22;75194;51.180;5.972;2024-03-22T00:22:38;11.70;77.40
83142;DHT22;75194;51.180;5.972;2024-03-22T00:25:04;11.70;77.50
83142;DHT22;75194;51.180;5.972;2024-03-22T00:27:31;11.70;77.60
83142;DHT22;75194;51.180;5.972;2024-03-22T00:29:57;11.70;77.50
83142;DHT22;75194;51.180;5.972;2024-03-22T00:32:22;11.70;77.50
83142;DHT22;75194;51.180;5.972;2024-03-22T00:34:48;11.70;77.60
83142;DHT22;75194;51.180;5.972;2024-03-22T00:37:17;11.70;77.80
83142;DHT22;75194;51.180;5.972;2024-03-22T00:39:43;11.70;77.70
83142;DHT22;75194;51.180;5.972;2024-03-22T00:42:09;11.70;77.80
83142;DHT22;75194;51.180;5.972;2024-03-22T00:44:34;11.70;77.80
83142;DHT22;75194;51.180;5.972;2024-03-22T00:47:00;11.70;77.80
83142;DHT22;75194;51.180;5.972;2024-03-22T00:49:28;11.60;78.20
83142;DHT22;75194;51.180;5.972;2024-03-22T00:51:54;11.60;77.90
83142;DHT22;75194;51.180;5.972;2024-03-22T00:54:21;11.60;78.20
83142;DHT22;75194;51.180;5.972;2024-03-22T00:56:47;11.60;78.40
83142;DHT22;75194;51.180;5.972;2024-03-22T00:59:13;11.60;78.50
83142;DHT22;75194;51.180;5.972;2024-03-22T01:01:38;11.60;78.40
83142;DHT22;75194;51.180;5.972;2024-03-22T01:04:04;11.60;78.50
83142;DHT22;75194;51.180;5.972;2024-03-22T01:06:30;11.60;78.60
83142;DHT22;75194;51.180;5.972;2024-03-22T01:08:55;11.60;78.80
83142;DHT22;75194;51.180;5.972;2024-03-22T01:11:21;11.60;78.80
83142;DHT22;75194;51.180;5.972;2024-03-22T01:13:46;11.60;78.70
83142;DHT22;75194;51.180;5.972;2024-03-22T01:16:12;11.60;78.70
83142;DHT22;75194;51.180;5.972;2024-03-22T01:18:38;11.60;78.80
83142;DHT22;75194;51.180;5.972;2024-03-22T01:21:04;11.60;78.90
83142;DHT22;75194;51.180;5.972;2024-03-22T01:23:32;11.60;78.90
83142;DHT22;75194;51.180;5.972;2024-03-22T01:26:00;11.60;78.90
83142;DHT22;75194;51.180;5.972;2024-03-22T01:28:25;11.60;79.10
83142;DHT22;75194;51.180;5.972;2024-03-22T01:30:51;11.60;79.10
83142;DHT22;75194;51.180;5.972;2024-03-22T01:33:16;11.60;78.90
83142;DHT22;75194;51.180;5.972;2024-03-22T01:35:42;11.60;79.00
83142;DHT22;75194;51.180;5.972;2024-03-22T01:38:07;11.60;79.10
83142;DHT22;75194;51.180;5.972;2024-03-22T01:40:33;11.60;79.20
83142;DHT22;75194;51.180;5.972;2024-03-22T01:43:00;11.70;79.10
83142;DHT22;75194;51.180;5.972;2024-03-22T01:45:27;11.70;79.10
83142;DHT22;75194;51.180;5.972;2024-03-22T01:47:56;11.70;79.20
83142;DHT22;75194;51.180;5.972;2024-03-22T01:50:23;11.70;79.10
83142;DHT22;75194;51.180;5.972;2024-03-22T01:52:48;11.70;79.10
83142;DHT22;75194;51.180;5.972;2024-03-22T01:55:14;11.70;79.00
83142;DHT22;75194;51.180;5.972;2024-03-22T01:57:40;11.80;79.00
83142;DHT22;75194;51.180;5.972;2024-03-22T02:00:06;11.80;78.80
83142;DHT22;75194;51.180;5.972;2024-03-22T02:02:34;11.80;78.80
83142;DHT22;75194;51.180;5.972;2024-03-22T02:05:11;11.80;78.70
83142;DHT22;75194;51.180;5.972;2024-03-22T02:07:38;11.80;78.70
83142;DHT22;75194;51.180;5.972;2024-03-22T02:10:05;11.80;78.80
83142;DHT22;75194;51.180;5.972;2024-03-22T02:12:33;11.80;78.70
83142;DHT22;75194;51.180;5.972;2024-03-22T02:14:59;11.80;78.70
83142;DHT22;75194;51.180;5.972;2024-03-22T02:17:25;11.80;78.60
83142;DHT22;75194;51.180;5.972;2024-03-22T02:19:50;11.90;78.60
83142;DHT22;75194;51.180;5.972;2024-03-22T02:22:16;11.90;78.60
83142;DHT22;75194;51.180;5.972;2024-03-22T02:24:41;11.90;78.40
83142;DHT22;75194;51.180;5.972;2024-03-22T02:27:07;11.90;78.40
83142;DHT22;75194;51.180;5.972;2024-03-22T02:29:33;11.90;78.50
83142;DHT22;75194;51.180;5.972;2024-03-22T02:31:58;11.90;78.30
83142;DHT22;75194;51.180;5.972;2024-03-22T02:34:24;11.90;78.40
83142;DHT22;75194;51.180;5.972;2024-03-22T02:36:50;11.90;78.40
83142;DHT22;75194;51.180;5.972;2024-03-22T02:39:15;11.90;78.40
83142;DHT22;75194;51.180;5.972;2024-03-22T02:41:41;11.90;78.40
83142;DHT22;75194;51.180;5.972;2024-03-22T02:44:06;11.90;78.20
83142;DHT22;75194;51.180;5.972;2024-03-22T02:46:32;11.90;78.20
83142;DHT22;75194;51.180;5.972;2024-03-22T02:48:58;11.80;78.30
83142;DHT22;75194;51.180;5.972;2024-03-22T02:51:24;11.90;78.20
83142;DHT22;75194;51.180;5.972;2024-03-22T02:53:49;11.90;78.20
83142;DHT22;75194;51.180;5.972;2024-03-22T02:56:15;11.90;78.20
83142;DHT22;75194;51.180;5.972;2024-03-22T02:58:41;11.90;78.00
83142;DHT22;75194;51.180;5.972;2024-03-22T03:01:06;11.90;78.10
83142;DHT22;75194;51.180;5.972;2024-03-22T03:03:32;11.90;78.00
83142;DHT22;75194;51.180;5.972;2024-03-22T03:05:57;11.90;78.00
83142;DHT22;75194;51.180;5.972;2024-03-22T03:08:23;11.80;78.10
83142;DHT22;75194;51.180;5.972;2024-03-22T03:10:48;11.80;78.20
83142;DHT22;75194;51.180;5.972;2024-03-22T03:13:14;11.80;78.30
83142;DHT22;75194;51.180;5.972;2024-03-22T03:15:40;11.70;78.30
83142;DHT22;75194;51.180;5.972;2024-03-22T03:18:05;11.70;78.40
83142;DHT22;75194;51.180;5.972;2024-03-22T03:20:31;11.70;78.30
83142;DHT22;75194;51.180;5.972;2024-03-22T03:22:56;11.70;78.30
83142;DHT22;75194;51.180;5.972;2024-03-22T03:25:27;11.70;78.30
83142;DHT22;75194;51.180;5.972;2024-03-22T03:27:53;11.60;78.30
83142;DHT22;75194;51.180;5.972;2024-03-22T03:30:18;11.60;78.40
83142;DHT22;75194;51.180;5.972;2024-03-22T03:32:44;11.60;78.60
83142;DHT22;75194;51.180;5.972;2024-03-22T03:35:12;11.60;78.70
83142;DHT22;75194;51.180;5.972;2024-03-22T03:37:38;11.50;78.70
83142;DHT22;75194;51.180;5.972;2024-03-22T03:40:04;11.50;78.90
83142;DHT22;75194;51.180;5.972;2024-03-22T03:42:29;11.50;78.90
83142;DHT22;75194;51.180;5.972;2024-03-22T03:44:55;11.50;78.90
83142;DHT22;75194;51.180;5.972;2024-03-22T03:47:21;11.50;79.00
83142;DHT22;75194;51.180;5.972;2024-03-22T03:49:47;11.50;78.80
83142;DHT22;75194;51.180;5.972;2024-03-22T03:52:13;11.50;78.70
83142;DHT22;75194;51.180;5.972;2024-03-22T03:54:38;11.50;78.70
83142;DHT22;75194;51.180;5.972;2024-03-22T03:57:04;11.50;78.60
83142;DHT22;75194;51.180;5.972;2024-03-22T03:59:30;11.50;78.60
83142;DHT22;75194;51.180;5.972;2024-03-22T04:01:55;11.50;78.70
83142;DHT22;75194;51.180;5.972;2024-03-22T04:04:21;11.50;78.70
83142;DHT22;75194;51.180;5.972;2024-03-22T04:06:47;11.50;78.50
83142;DHT22;75194;51.180;5.972;2024-03-22T04:09:12;11.50;78.60
83142;DHT22;75194;51.180;5.972;2024-03-22T04:11:38;11.50;78.30
83142;DHT22;75194;51.180;5.972;2024-03-22T04:14:04;11.60;78.10
83142;DHT22;75194;51.180;5.972;2024-03-22T04:16:30;11.60;78.00
83142;DHT22;75194;51.180;5.972;2024-03-22T04:18:56;11.60;77.90
83142;DHT22;75194;51.180;5.972;2024-03-22T04:21:22;11.60;77.80
83142;DHT22;75194;51.180;5.972;2024-03-22T04:23:47;11.60;77.60
83142;DHT22;75194;51.180;5.972;2024-03-22T04:26:13;11.60;77.60
83142;DHT22;75194;51.180;5.972;2024-03-22T04:28:38;11.60;77.40
83142;DHT22;75194;51.180;5.972;2024-03-22T04:31:08;11.60;77.50
83142;DHT22;75194;51.180;5.972;2024-03-22T04:33:36;11.70;77.40
83142;DHT22;75194;51.180;5.972;2024-03-22T04:36:05;11.70;77.40
83142;DHT22;75194;51.180;5.972;2024-03-22T04:38:31;11.70;77.10
83142;DHT22;75194;51.180;5.972;2024-03-22T04:40:57;11.70;77.10
83142;DHT22;75194;51.180;5.972;2024-03-22T04:43:23;11.70;76.80
83142;DHT22;75194;51.180;5.972;2024-03-22T04:45:49;11.70;76.90
83142;DHT22;75194;51.180;5.972;2024-03-22T04:48:20;11.70;76.80
83142;DHT22;75194;51.180;5.972;2024-03-22T04:50:47;11.70;76.70
83142;DHT22;75194;51.180;5.972;2024-03-22T04:53:16;11.70;76.80
83142;DHT22;75194;51.180;5.972;2024-03-22T04:55:43;11.70;76.60
83142;DHT22;75194;51.180;5.972;2024-03-22T04:58:20;11.70;76.70
83142;DHT22;75194;51.180;5.972;2024-03-22T05:00:49;11.70;76.70
83142;DHT22;75194;51.180;5.972;2024-03-22T05:03:15;11.70;76.80
83142;DHT22;75194;51.180;5.972;2024-03-22T05:05:42;11.70;76.80
83142;DHT22;75194;51.180;5.972;2024-03-22T05:08:08;11.70;76.80
83142;DHT22;75194;51.180;5.972;2024-03-22T05:10:34;11.70;76.80
83142;DHT22;75194;51.180;5.972;2024-03-22T05:13:00;11.70;76.90
83142;DHT22;75194;51.180;5.972;2024-03-22T05:15:26;11.70;77.10
83142;DHT22;75194;51.180;5.972;2024-03-22T05:17:52;11.60;77.20
83142;DHT22;75194;51.180;5.972;2024-03-22T05:20:18;11.60;77.30
83142;DHT22;75194;51.180;5.972;2024-03-22T05:22:44;11.60;77.30
83142;DHT22;75194;51.180;5.972;2024-03-22T05:25:10;11.60;77.30
83142;DHT22;75194;51.180;5.972;2024-03-22T05:27:36;11.60;77.40
83142;DHT22;75194;51.180;5.972;2024-03-22T05:30:02;11.60;77.40
83142;DHT22;75194;51.180;5.972;2024-03-22T05:32:29;11.60;77.30
83142;DHT22;75194;51.180;5.972;2024-03-22T05:34:55;11.60;77.40
83142;DHT22;75194;51.180;5.972;2024-03-22T05:37:21;11.60;77.30
83142;DHT22;75194;51.180;5.972;2024-03-22T05:39:47;11.60;77.30
83142;DHT22;75194;51.180;5.972;2024-03-22T05:42:13;11.60;77.30
83142;DHT22;75194;51.180;5.972;2024-03-22T05:44:38;11.60;77.40
83142;DHT22;75194;51.180;5.972;2024-03-22T05:47:04;11.50;77.50
83142;DHT22;75194;51.180;5.972;2024-03-22T05:49:30;11.50;77.50
83142;DHT22;75194;51.180;5.972;2024-03-22T05:51:55;11.50;77.60
83142;DHT22;75194;51.180;5.972;2024-03-22T05:54:21;11.50;77.40
83142;DHT22;75194;51.180;5.972;2024-03-22T05:56:46;11.50;77.40
83142;DHT22;75194;51.180;5.972;2024-03-22T05:59:12;11.50;77.50
83142;DHT22;75194;51.180;5.972;2024-03-22T06:01:37;11.50;77.30
83142;DHT22;75194;51.180;5.972;2024-03-22T06:04:06;11.50;77.20
83142;DHT22;75194;51.180;5.972;2024-03-22T06:06:33;11.60;76.90
83142;DHT22;75194;51.180;5.972;2024-03-22T06:08:59;11.60;77.00
83142;DHT22;75194;51.180;5.972;2024-03-22T06:11:26;11.60;76.80
83142;DHT22;75194;51.180;5.972;2024-03-22T06:13:51;11.60;76.70
83142;DHT22;75194;51.180;5.972;2024-03-22T06:16:17;11.70;76.60
83142;DHT22;75194;51.180;5.972;2024-03-22T06:18:42;11.70;76.50
83142;DHT22;75194;51.180;5.972;2024-03-22T06:21:08;11.70;76.50
83142;DHT22;75194;51.180;5.972;2024-03-22T06:23:34;11.70;76.40
83142;DHT22;75194;51.180;5.972;2024-03-22T06:26:01;11.70;76.30
83142;DHT22;75194;51.180;5.972;2024-03-22T06:28:28;11.70;76.20
83142;DHT22;75194;51.180;5.972;2024-03-22T06:30:54;11.70;76.10
83142;DHT22;75194;51.180;5.972;2024-03-22T06:33:20;11.70;76.00
83142;DHT22;75194;51.180;5.972;2024-03-22T06:35:46;11.70;75.90
83142;DHT22;75194;51.180;5.972;2024-03-22T06:38:12;11.70;76.00
83142;DHT22;75194;51.180;5.972;2024-03-22T06:40:38;11.80;75.70
83142;DHT22;75194;51.180;5.972;2024-03-22T06:43:04;11.80;75.60
83142;DHT22;75194;51.180;5.972;2024-03-22T06:45:29;11.80;75.60
83142;DHT22;75194;51.180;5.972;2024-03-22T06:47:55;11.80;75.50
83142;DHT22;75194;51.180;5.972;2024-03-22T06:50:21;11.90;75.20
83142;DHT22;75194;51.180;5.972;2024-03-22T06:52:50;12.00;74.80
83142;DHT22;75194;51.180;5.972;2024-03-22T06:55:20;12.00;74.20
83142;DHT22;75194;51.180;5.972;2024-03-22T06:57:49;12.10;74.40
83142;DHT22;75194;51.180;5.972;2024-03-22T07:00:16;12.20;74.30
83142;DHT22;75194;51.180;5.972;2024-03-22T07:02:43;12.20;74.10
83142;DHT22;75194;51.180;5.972;2024-03-22T07:05:10;12.30;74.10
83142;DHT22;75194;51.180;5.972;2024-03-22T07:07:36;12.30;74.00
83142;DHT22;75194;51.180;5.972;2024-03-22T07:10:02;12.30;74.20
83142;DHT22;75194;51.180;5.972;2024-03-22T07:12:28;12.30;74.30
83142;DHT22;75194;51.180;5.972;2024-03-22T07:14:55;12.30;74.30
83142;DHT22;75194;51.180;5.972;2024-03-22T07:17:21;12.40;73.80
83142;DHT22;75194;51.180;5.972;2024-03-22T07:19:50;12.40;73.80
83142;DHT22;75194;51.180;5.972;2024-03-22T07:22:17;12.40;73.80
83142;DHT22;75194;51.180;5.972;2024-03-22T07:24:42;12.40;73.80
83142;DHT22;75194;51.180;5.972;2024-03-22T07:27:09;12.40;73.50
83142;DHT22;75194;51.180;5.972;2024-03-22T07:29:35;12.40;73.90
83142;DHT22;75194;51.180;5.972;2024-03-22T07:32:00;12.40;73.30
83142;DHT22;75194;51.180;5.972;2024-03-22T07:34:26;12.40;73.20
83142;DHT22;75194;51.180;5.972;2024-03-22T07:36:52;12.40;72.80
83142;DHT22;75194;51.180;5.972;2024-03-22T07:39:18;12.40;72.80
83142;DHT22;75194;51.180;5.972;2024-03-22T07:41:44;12.50;72.80
83142;DHT22;75194;51.180;5.972;2024-03-22T07:44:10;12.40;72.60
83142;DHT22;75194;51.180;5.972;2024-03-22T07:46:39;12.50;72.70
83142;DHT22;75194;51.180;5.972;2024-03-22T07:49:14;12.40;73.00
83142;DHT22;75194;51.180;5.972;2024-03-22T07:51:40;12.40;72.60
83142;DHT22;75194;51.180;5.972;2024-03-22T07:54:05;12.40;72.80
83142;DHT22;75194;51.180;5.972;2024-03-22T07:56:31;12.40;72.80
83142;DHT22;75194;51.180;5.972;2024-03-22T07:58:57;12.40;72.60
83142;DHT22;75194;51.180;5.972;2024-03-22T08:01:28;12.50;72.60
83142;DHT22;75194;51.180;5.972;2024-03-22T08:03:53;12.50;72.50
83142;DHT22;75194;51.180;5.972;2024-03-22T08:06:19;12.50;72.20
83142;DHT22;75194;51.180;5.972;2024-03-22T08:08:51;12.50;72.30
83142;DHT22;75194;51.180;5.972;2024-03-22T08:11:17;12.50;72.50
83142;DHT22;75194;51.180;5.972;2024-03-22T08:13:43;12.50;72.20
83142;DHT22;75194;51.180;5.972;2024-03-22T08:16:08;12.50;72.20
83142;DHT22;75194;51.180;5.972;2024-03-22T08:18:34;12.60;72.00
83142;DHT22;75194;51.180;5.972;2024-03-22T08:21:00;12.70;71.80
83142;DHT22;75194;51.180;5.972;2024-03-22T08:23:26;12.70;71.40
83142;DHT22;75194;51.180;5.972;2024-03-22T08:26:01;12.70;71.10
83142;DHT22;75194;51.180;5.972;2024-03-22T08:28:26;12.80;70.80
83142;DHT22;75194;51.180;5.972;2024-03-22T08:31:13;13.00;70.40
83142;DHT22;75194;51.180;5.972;2024-03-22T08:33:39;13.10;70.20
83142;DHT22;75194;51.180;5.972;2024-03-22T08:36:04;13.10;70.00
83142;DHT22;75194;51.180;5.972;2024-03-22T08:38:30;13.20;69.70
83142;DHT22;75194;51.180;5.972;2024-03-22T08:40:56;13.30;69.00
83142;DHT22;75194;51.180;5.972;2024-03-22T08:43:21;13.40;68.70
83142;DHT22;75194;51.180;5.972;2024-03-22T08:45:55;13.40;68.70
83142;DHT22;75194;51.180;5.972;2024-03-22T08:48:21;13.60;67.90
83142;DHT22;75194;51.180;5.972;2024-03-22T08:50:47;13.70;68.10
83142;DHT22;75194;51.180;5.972;2024-03-22T08:53:12;13.90;67.30
83142;DHT22;75194;51.180;5.972;2024-03-22T08:55:38;14.00;67.00
83142;DHT22;75194;51.180;5.972;2024-03-22T08:58:04;14.10;66.80
83142;DHT22;75194;51.180;5.972;2024-03-22T09:00:30;14.30;65.40
83142;DHT22;75194;51.180;5.972;2024-03-22T09:02:56;14.10;66.00
83142;DHT22;75194;51.180;5.972;2024-03-22T09:05:21;14.10;66.10
83142;DHT22;75194;51.180;5.972;2024-03-22T09:07:47;14.00;66.50
83142;DHT22;75194;51.180;5.972;2024-03-22T09:10:13;13.90;66.40
83142;DHT22;75194;51.180;5.972;2024-03-22T09:12:39;13.90;66.70
83142;DHT22;75194;51.180;5.972;2024-03-22T09:15:05;13.90;66.20
83142;DHT22;75194;51.180;5.972;2024-03-22T09:17:31;13.90;65.80
83142;DHT22;75194;51.180;5.972;2024-03-22T09:19:56;13.70;65.50
83142;DHT22;75194;51.180;5.972;2024-03-22T09:22:22;13.70;65.30
83142;DHT22;75194;51.180;5.972;2024-03-22T09:24:48;13.60;65.80
83142;DHT22;75194;51.180;5.972;2024-03-22T09:27:14;13.60;65.90
83142;DHT22;75194;51.180;5.972;2024-03-22T09:29:39;13.50;66.20
83142;DHT22;75194;51.180;5.972;2024-03-22T09:32:05;13.50;65.40
83142;DHT22;75194;51.180;5.972;2024-03-22T09:34:31;13.40;65.30
83142;DHT22;75194;51.180;5.972;2024-03-22T09:36:57;13.40;65.30
83142;DHT22;75194;51.180;5.972;2024-03-22T09:39:23;13.40;65.60
83142;DHT22;75194;51.180;5.972;2024-03-22T09:41:50;13.40;65.70
83142;DHT22;75194;51.180;5.972;2024-03-22T09:44:18;13.50;65.80
83142;DHT22;75194;51.180;5.972;2024-03-22T09:46:46;13.50;65.50
83142;DHT22;75194;51.180;5.972;2024-03-22T09:49:12;13.60;65.30
83142;DHT22;75194;51.180;5.972;2024-03-22T09:51:43;13.60;64.90
83142;DHT22;75194;51.180;5.972;2024-03-22T09:54:11;13.70;65.50
83142;DHT22;75194;51.180;5.972;2024-03-22T09:56:41;13.70;65.00
83142;DHT22;75194;51.180;5.972;2024-03-22T09:59:08;13.60;65.50
83142;DHT22;75194;51.180;5.972;2024-03-22T10:01:56;13.70;64.80
83142;DHT22;75194;51.180;5.972;2024-03-22T10:04:23;13.70;64.10
83142;DHT22;75194;51.180;5.972;2024-03-22T10:06:49;13.60;63.80
83142;DHT22;75194;51.180;5.972;2024-03-22T10:09:16;13.60;64.00
83142;DHT22;75194;51.180;5.972;2024-03-22T10:11:44;13.50;64.10
83142;DHT22;75194;51.180;5.972;2024-03-22T10:14:13;13.50;64.90
83142;DHT22;75194;51.180;5.972;2024-03-22T10:16:39;13.50;65.10
83142;DHT22;75194;51.180;5.972;2024-03-22T10:19:05;13.50;65.10
83142;DHT22;75194;51.180;5.972;2024-03-22T10:21:30;13.50;65.20
83142;DHT22;75194;51.180;5.972;2024-03-22T10:23:56;13.50;65.30
83142;DHT22;75194;51.180;5.972;2024-03-22T10:26:22;13.50;65.50
83142;DHT22;75194;51.180;5.972;2024-03-22T10:28:48;13.70;65.40
83142;DHT22;75194;51.180;5.972;2024-03-22T10:31:13;13.80;65.00
83142;DHT22;75194;51.180;5.972;2024-03-22T10:33:41;13.80;64.30
83142;DHT22;75194;51.180;5.972;2024-03-22T10:36:07;13.90;63.60
83142;DHT22;75194;51.180;5.972;2024-03-22T10:38:35;13.90;63.00
83142;DHT22;75194;51.180;5.972;2024-03-22T10:41:01;14.00;63.00
83142;DHT22;75194;51.180;5.972;2024-03-22T10:43:31;14.00;62.10
83142;DHT22;75194;51.180;5.972;2024-03-22T10:46:01;14.10;62.50
83142;DHT22;75194;51.180;5.972;2024-03-22T10:48:34;14.20;62.60
83142;DHT22;75194;51.180;5.972;2024-03-22T10:51:10;14.30;63.00
83142;DHT22;75194;51.180;5.972;2024-03-22T10:53:36;14.30;63.00
83142;DHT22;75194;51.180;5.972;2024-03-22T10:56:04;14.20;63.50
83142;DHT22;75194;51.180;5.972;2024-03-22T10:58:39;14.30;62.20
83142;DHT22;75194;51.180;5.972;2024-03-22T11:01:26;14.30;61.40
83142;DHT22;75194;51.180;5.972;2024-03-22T11:04:11;14.30;60.80
83142;DHT22;75194;51.180;5.972;2024-03-22T11:06:36;14.50;60.60
83142;DHT22;75194;51.180;5.972;2024-03-22T11:09:02;14.70;60.30
83142;DHT22;75194;51.180;5.972;2024-03-22T11:11:35;15.10;59.50
83142;DHT22;75194;51.180;5.972;2024-03-22T11:14:03;15.20;59.10
83142;DHT22;75194;51.180;5.972;2024-03-22T11:16:38;15.30;59.10
83142;DHT22;75194;51.180;5.972;2024-03-22T11:19:07;15.10;59.50
83142;DHT22;75194;51.180;5.972;2024-03-22T11:21:33;14.60;60.70
83142;DHT22;75194;51.180;5.972;2024-03-22T11:24:02;14.40;61.70
83142;DHT22;75194;51.180;5.972;2024-03-22T11:26:27;14.20;62.80
83142;DHT22;75194;51.180;5.972;2024-03-22T11:29:15;14.10;62.70
83142;DHT22;75194;51.180;5.972;2024-03-22T11:31:43;13.90;63.30
83142;DHT22;75194;51.180;5.972;2024-03-22T11:34:12;13.60;63.90
83142;DHT22;75194;51.180;5.972;2024-03-22T11:36:37;13.70;64.50
83142;DHT22;75194;51.180;5.972;2024-03-22T11:39:03;13.70;64.10
83142;DHT22;75194;51.180;5.972;2024-03-22T11:41:30;13.60;64.40
83142;DHT22;75194;51.180;5.972;2024-03-22T11:43:56;13.50;64.70
83142;DHT22;75194;51.180;5.972;2024-03-22T11:46:24;13.40;64.80
83142;DHT22;75194;51.180;5.972;2024-03-22T11:48:56;13.50;64.60
83142;DHT22;75194;51.180;5.972;2024-03-22T11:51:25;13.30;65.10
83142;DHT22;75194;51.180;5.972;2024-03-22T11:53:54;13.40;65.30
83142;DHT22;75194;51.180;5.972;2024-03-22T11:56:24;13.50;65.30
83142;DHT22;75194;51.180;5.972;2024-03-22T11:58:58;13.50;64.70
83142;DHT22;75194;51.180;5.972;2024-03-22T12:01:23;13.50;64.80
83142;DHT22;75194;51.180;5.972;2024-03-22T12:03:49;13.40;65.30
83142;DHT22;75194;51.180;5.972;2024-03-22T12:06:15;13.30;65.50
83142;DHT22;75194;51.180;5.972;2024-03-22T12:08:41;13.50;65.40
83142;DHT22;75194;51.180;5.972;2024-03-22T12:11:08;13.50;65.40
83142;DHT22;75194;51.180;5.972;2024-03-22T12:13:34;13.50;65.20
83142;DHT22;75194;51.180;5.972;2024-03-22T12:16:06;13.50;65.60
83142;DHT22;75194;51.180;5.972;2024-03-22T12:18:38;13.50;65.10
83142;DHT22;75194;51.180;5.972;2024-03-22T12:21:04;13.40;65.00
83142;DHT22;75194;51.180;5.972;2024-03-22T12:23:29;13.40;65.10
83142;DHT22;75194;51.180;5.972;2024-03-22T12:25:55;13.50;64.90
83142;DHT22;75194;51.180;5.972;2024-03-22T12:28:21;13.50;65.00
83142;DHT22;75194;51.180;5.972;2024-03-22T12:30:49;13.50;64.60
83142;DHT22;75194;51.180;5.972;2024-03-22T12:33:15;13.50;64.70
83142;DHT22;75194;51.180;5.972;2024-03-22T12:35:41;13.50;64.90
83142;DHT22;75194;51.180;5.972;2024-03-22T12:38:07;13.40;65.20
83142;DHT22;75194;51.180;5.972;2024-03-22T12:40:51;13.40;64.90
83142;DHT22;75194;51.180;5.972;2024-03-22T12:43:16;13.30;65.30
83142;DHT22;75194;51.180;5.972;2024-03-22T12:45:42;13.40;65.10
83142;DHT22;75194;51.180;5.972;2024-03-22T12:48:08;13.30;65.50
83142;DHT22;75194;51.180;5.972;2024-03-22T12:50:34;13.30;65.80
83142;DHT22;75194;51.180;5.972;2024-03-22T12:53:00;13.30;65.60
83142;DHT22;75194;51.180;5.972;2024-03-22T12:55:35;13.30;65.30
83142;DHT22;75194;51.180;5.972;2024-03-22T12:58:01;13.30;65.70
83142;DHT22;75194;51.180;5.972;2024-03-22T13:00:26;13.30;66.00
83142;DHT22;75194;51.180;5.972;2024-03-22T13:02:53;13.30;65.90
83142;DHT22;75194;51.180;5.972;2024-03-22T13:05:18;13.20;66.20
83142;DHT22;75194;51.180;5.972;2024-03-22T13:07:44;13.10;66.50
83142;DHT22;75194;51.180;5.972;2024-03-22T13:10:10;13.20;66.90
83142;DHT22;75194;51.180;5.972;2024-03-22T13:12:36;13.10;66.60
83142;DHT22;75194;51.180;5.972;2024-03-22T13:15:05;13.10;66.80
83142;DHT22;75194;51.180;5.972;2024-03-22T13:17:31;13.00;66.90
83142;DHT22;75194;51.180;5.972;2024-03-22T13:19:57;12.90;67.40
83142;DHT22;75194;51.180;5.972;2024-03-22T13:22:22;13.00;67.80
83142;DHT22;75194;51.180;5.972;2024-03-22T13:24:48;13.10;67.70
83142;DHT22;75194;51.180;5.972;2024-03-22T13:27:16;13.00;67.80
83142;DHT22;75194;51.180;5.972;2024-03-22T13:29:42;13.00;67.60
83142;DHT22;75194;51.180;5.972;2024-03-22T13:32:08;12.90;68.20
83142;DHT22;75194;51.180;5.972;2024-03-22T13:34:37;13.00;68.10
83142;DHT22;75194;51.180;5.972;2024-03-22T13:37:06;12.90;68.30
83142;DHT22;75194;51.180;5.972;2024-03-22T13:39:32;12.90;68.40
83142;DHT22;75194;51.180;5.972;2024-03-22T13:41:58;12.80;68.90
83142;DHT22;75194;51.180;5.972;2024-03-22T13:44:23;12.70;68.90
83142;DHT22;75194;51.180;5.972;2024-03-22T13:46:50;12.70;69.00
83142;DHT22;75194;51.180;5.972;2024-03-22T13:49:17;12.70;68.90
83142;DHT22;75194;51.180;5.972;2024-03-22T13:51:43;12.60;69.30
83142;DHT22;75194;51.180;5.972;2024-03-22T13:54:09;12.70;69.40
83142;DHT22;75194;51.180;5.972;2024-03-22T13:56:35;12.70;69.50
83142;DHT22;75194;51.180;5.972;2024-03-22T13:59:04;12.70;69.40
83142;DHT22;75194;51.180;5.972;2024-03-22T14:01:32;12.60;69.50
83142;DHT22;75194;51.180;5.972;2024-03-22T14:03:58;12.60;69.90
83142;DHT22;75194;51.180;5.972;2024-03-22T14:06:24;12.50;69.90
83142;DHT22;75194;51.180;5.972;2024-03-22T14:08:49;12.50;70.10
83142;DHT22;75194;51.180;5.972;2024-03-22T14:11:15;12.50;70.10
83142;DHT22;75194;51.180;5.972;2024-03-22T14:13:40;12.40;70.30
83142;DHT22;75194;51.180;5.972;2024-03-22T14:16:06;12.40;70.60
83142;DHT22;75194;51.180;5.972;2024-03-22T14:18:33;12.40;70.70
83142;DHT22;75194;51.180;5.972;2024-03-22T14:21:01;12.40;70.70
83142;DHT22;75194;51.180;5.972;2024-03-22T14:23:28;12.40;70.70
83142;DHT22;75194;51.180;5.972;2024-03-22T14:25:55;12.40;70.70
83142;DHT22;75194;51.180;5.972;2024-03-22T14:28:21;12.40;70.90
83142;DHT22;75194;51.180;5.972;2024-03-22T14:30:47;12.40;71.10
83142;DHT22;75194;51.180;5.972;2024-03-22T14:33:21;12.50;70.90
83142;DHT22;75194;51.180;5.972;2024-03-22T14:36:07;12.40;71.40
83142;DHT22;75194;51.180;5.972;2024-03-22T14:38:34;12.30;71.80
83142;DHT22;75194;51.180;5.972;2024-03-22T14:41:00;12.20;72.10
83142;DHT22;75194;51.180;5.972;2024-03-22T14:43:26;12.20;72.20
83142;DHT22;75194;51.180;5.972;2024-03-22T14:45:55;12.10;72.40
83142;DHT22;75194;51.180;5.972;2024-03-22T14:48:24;12.20;72.50
83142;DHT22;75194;51.180;5.972;2024-03-22T14:50:50;12.20;72.60
83142;DHT22;75194;51.180;5.972;2024-03-22T14:53:20;12.10;73.10
83142;DHT22;75194;51.180;5.972;2024-03-22T14:55:56;12.10;73.40
83142;DHT22;75194;51.180;5.972;2024-03-22T14:58:26;12.10;73.70
83142;DHT22;75194;51.180;5.972;2024-03-22T15:00:59;12.00;74.00
83142;DHT22;75194;51.180;5.972;2024-03-22T15:03:25;12.00;74.30
83142;DHT22;75194;51.180;5.972;2024-03-22T15:05:52;11.90;74.90
83142;DHT22;75194;51.180;5.972;2024-03-22T15:08:19;11.80;75.20
83142;DHT22;75194;51.180;5.972;2024-03-22T15:10:44;11.80;75.80
83142;DHT22;75194;51.180;5.972;2024-03-22T15:13:11;11.90;75.80
83142;DHT22;75194;51.180;5.972;2024-03-22T15:15:37;11.90;76.20
83142;DHT22;75194;51.180;5.972;2024-03-22T15:18:03;11.80;76.30
83142;DHT22;75194;51.180;5.972;2024-03-22T15:20:31;11.70;76.60
83142;DHT22;75194;51.180;5.972;2024-03-22T15:22:56;11.60;77.20
83142;DHT22;75194;51.180;5.972;2024-03-22T15:25:22;11.70;77.30
83142;DHT22;75194;51.180;5.972;2024-03-22T15:27:48;11.60;77.60